Thornton, Nebraska
Current Conditions -  °F | °C
As of 1:55 AM on Friday 19 Dec 2014 (Local Time) from KEAR Reporting Station
Overcast Overcast  
Wind Chill: 20°   Ceiling: 500
Heat Index: 28°   Visibility: 8mi
Dew Point: 25°   Wind: 8mph
Humidity: 86%   Direction: 210°SSW
Pressure: 30.16"   Gusts: NA
Location:  40.7619°N, 99.1445°W
Report Text: KEAR 190755Z 21007KT 8SM OVC005 M02/M04 A3016 RMK AO1
Loading
Personal Weather Stations






























Interactive Weather Map New forecast layout! Learn more

10-Day Weather Forecast

Advertisements
Track Severe Weather on mobile